MV Sukran S — TCKB — position and weather

sailwx.info

Track history (hours):
 
Tides and Currents Weather Stations Pressure Air Temp Water Temp Dewpoint Dewpoint Depression Visibility Wind Speed Wind Dir Waves Ship Positions

MV Sukran S

Last reported at 2014-Sep-06 20:27 UTC. Time now 2014-Sep-18 09:37 UTC.
Position N 41°20' E 029°13'.
Warning: this ship's position is 11 days out of date.

Length 108 m; draft 4.8 m.

Type: Cargo ship. MMSI: 271000056.

Date/timePositionNaut miles runAvg speedWind from/ knotsBaromVisibWave heightAir tempDewpointWater temp
2014-Sep-06 20:27N 41°20' E 029°13'29 2.6
2014-Sep-06 09:33N 40°51' E 029°11'0 0.0
2014-Sep-06 08:33N 40°51' E 029°11'0 0.0
2014-Sep-06 07:33N 40°51' E 029°11'0 0.0
2014-Sep-06 06:33N 40°51' E 029°11'0 0.0
2014-Sep-06 05:33N 40°51' E 029°11'0 0.0
2014-Sep-06 04:33N 40°51' E 029°11'0 0.0
2014-Sep-06 03:33N 40°51' E 029°11'0 0.0
2014-Sep-06 02:33N 40°51' E 029°11'0 0.0
2014-Sep-06 01:33N 40°51' E 029°11'0 0.0
2014-Sep-06 00:32N 40°51' E 029°11'0 0.0
2014-Sep-05 23:31N 40°51' E 029°11'0 0.0
2014-Sep-05 22:33N 40°51' E 029°11'0 0.0
2014-Sep-05 21:28N 40°51' E 029°11'0 0.0
2014-Sep-05 20:33N 40°51' E 029°11'0 0.0
2014-Sep-05 19:33N 40°51' E 029°11'0 0.0
2014-Sep-05 18:33N 40°51' E 029°11'0 0.0
2014-Sep-05 17:33N 40°51' E 029°11'0 0.0
2014-Sep-05 16:33N 40°51' E 029°11'0 0.0
2014-Sep-05 15:33N 40°51' E 029°11'0 0.0
2014-Sep-05 14:32N 40°51' E 029°11'0 0.0
2014-Sep-05 13:33N 40°51' E 029°11'0 0.0
2014-Sep-05 12:33N 40°51' E 029°11'0 0.1
2014-Sep-05 11:33N 40°51' E 029°11'0 0.0
2014-Sep-05 10:33N 40°51' E 029°11'0 0.0
2014-Sep-05 09:31N 40°51' E 029°11'0 0.0
2014-Sep-05 08:33N 40°51' E 029°11'0 0.1
2014-Sep-05 07:32N 40°51' E 029°11'0 0.0
2014-Sep-05 06:33N 40°51' E 029°11'0 0.0
2014-Sep-05 05:33N 40°51' E 029°11'0 0.0
2014-Sep-05 04:33N 40°51' E 029°11'0 0.0
2014-Sep-05 03:32N 40°51' E 029°11'0 0.0
2014-Sep-05 02:33N 40°51' E 029°11'0 0.0
2014-Sep-05 01:33N 40°51' E 029°11'0 0.0
2014-Sep-05 00:32N 40°51' E 029°11'0 0.1
2014-Sep-04 23:33N 40°51' E 029°11'2 1.6
2014-Sep-04 22:33N 40°50' E 029°12'8 7.8
2014-Sep-04 21:33N 40°45' E 029°20'10 8.7
2014-Sep-04 20:26N 40°46' E 029°33'0 0.2
2014-Sep-04 19:33N 40°46' E 029°33'0 0.0
2014-Sep-04 18:31N 40°46' E 029°33'0 0.0
2014-Sep-04 17:30N 40°46' E 029°33'0 0.0
2014-Sep-04 16:29N 40°46' E 029°33'0 0.0
2014-Sep-04 15:29N 40°46' E 029°33'0 0.0
2014-Sep-04 07:04N 40°46' E 029°33'0 0.0
2014-Sep-04 05:31N 40°46' E 029°33'0 0.0
2014-Sep-04 04:33N 40°46' E 029°33'0 0.0
2014-Sep-04 03:31N 40°46' E 029°33'0 0.0
2014-Sep-04 02:32N 40°46' E 029°33'0 0.0
2014-Sep-04 01:25N 40°46' E 029°33'0 0.0
2014-Sep-04 00:19N 40°46' E 029°33'0 0.0
2014-Sep-03 13:23N 40°46' E 029°33'0 0.0
2014-Sep-03 12:32N 40°46' E 029°33'0 0.0
2014-Sep-02 18:22N 40°46' E 029°33'0 0.0
2014-Sep-02 17:29N 40°46' E 029°33'0 0.0
2014-Sep-02 13:30N 40°46' E 029°33'0 0.0
2014-Sep-02 09:25N 40°46' E 029°33'0 0.0
2014-Sep-02 08:32N 40°46' E 029°33'0 0.0
2014-Sep-02 03:26N 40°46' E 029°33'1 0.0
2014-Aug-31 12:21N 40°46' E 029°32'5 5.7
2014-Aug-31 11:33N 40°46' E 029°26'0 0.0
2014-Aug-31 06:07N 40°46' E 029°26'0 0.0
2014-Aug-31 04:12N 40°46' E 029°26'3 0.7
2014-Aug-31 00:33N 40°45' E 029°23'9 8.9
2014-Aug-30 23:33N 40°47' E 029°12'9 9.1
2014-Aug-30 22:33N 40°50' E 029°00'8 7.9
2014-Aug-30 21:33N 40°58' E 028°58'25 1.9
2014-Aug-30 08:19N 41°17' E 029°19'7 9.6
2014-Aug-30 07:33N 41°18' E 029°29'365 7.9
2014-Aug-28 09:21N 44°08' E 036°50'26 9.2
2014-Aug-28 06:31N 44°23' E 037°19'9 9.6
2014-Aug-28 05:33N 44°28' E 037°30'10 9.6
2014-Aug-28 04:33N 44°33' E 037°41'9 9.2
2014-Aug-28 03:33N 44°40' E 037°50'5 4.7
2014-Aug-28 02:33N 44°44' E 037°47'0 0.0
2014-Aug-28 01:33N 44°44' E 037°47'0 0.0
2014-Aug-28 00:32N 44°44' E 037°47'0 0.0
2014-Aug-27 23:32N 44°44' E 037°47'0 0.0
2014-Aug-27 22:31N 44°44' E 037°47'0 0.0
2014-Aug-27 21:31N 44°44' E 037°47'0 0.0
2014-Aug-27 20:31N 44°44' E 037°47'  
Track history (hours):
 
Tides and Currents Weather Stations Pressure Air Temp Water Temp Dewpoint Dewpoint Depression Visibility Wind Speed Wind Dir Waves Ship Positions

MV Sukran S

Last reported at 2014-Sep-06 20:27 UTC. Time now 2014-Sep-18 09:37 UTC.
Position N 41°20' E 029°13'.
Warning: this ship's position is 11 days out of date.

Length 108 m; draft 4.8 m.

Type: Cargo ship. MMSI: 271000056.

Date/timePositionNaut miles runAvg speedWind from/ knotsBaromVisibWave heightAir tempDewpointWater temp
2014-Sep-06 20:27N 41°20' E 029°13'29 2.6
2014-Sep-06 09:33N 40°51' E 029°11'0 0.0
2014-Sep-06 08:33N 40°51' E 029°11'0 0.0
2014-Sep-06 07:33N 40°51' E 029°11'0 0.0
2014-Sep-06 06:33N 40°51' E 029°11'0 0.0
2014-Sep-06 05:33N 40°51' E 029°11'0 0.0
2014-Sep-06 04:33N 40°51' E 029°11'0 0.0
2014-Sep-06 03:33N 40°51' E 029°11'0 0.0
2014-Sep-06 02:33N 40°51' E 029°11'0 0.0
2014-Sep-06 01:33N 40°51' E 029°11'0 0.0
2014-Sep-06 00:32N 40°51' E 029°11'0 0.0
2014-Sep-05 23:31N 40°51' E 029°11'0 0.0
2014-Sep-05 22:33N 40°51' E 029°11'0 0.0
2014-Sep-05 21:28N 40°51' E 029°11'0 0.0
2014-Sep-05 20:33N 40°51' E 029°11'0 0.0
2014-Sep-05 19:33N 40°51' E 029°11'0 0.0
2014-Sep-05 18:33N 40°51' E 029°11'0 0.0
2014-Sep-05 17:33N 40°51' E 029°11'0 0.0
2014-Sep-05 16:33N 40°51' E 029°11'0 0.0
2014-Sep-05 15:33N 40°51' E 029°11'0 0.0
2014-Sep-05 14:32N 40°51' E 029°11'0 0.0
2014-Sep-05 13:33N 40°51' E 029°11'0 0.0
2014-Sep-05 12:33N 40°51' E 029°11'0 0.1
2014-Sep-05 11:33N 40°51' E 029°11'0 0.0
2014-Sep-05 10:33N 40°51' E 029°11'0 0.0
2014-Sep-05 09:31N 40°51' E 029°11'0 0.0
2014-Sep-05 08:33N 40°51' E 029°11'0 0.1
2014-Sep-05 07:32N 40°51' E 029°11'0 0.0
2014-Sep-05 06:33N 40°51' E 029°11'0 0.0
2014-Sep-05 05:33N 40°51' E 029°11'0 0.0
2014-Sep-05 04:33N 40°51' E 029°11'0 0.0
2014-Sep-05 03:32N 40°51' E 029°11'0 0.0
2014-Sep-05 02:33N 40°51' E 029°11'0 0.0
2014-Sep-05 01:33N 40°51' E 029°11'0 0.0
2014-Sep-05 00:32N 40°51' E 029°11'0 0.1
2014-Sep-04 23:33N 40°51' E 029°11'2 1.6
2014-Sep-04 22:33N 40°50' E 029°12'8 7.8
2014-Sep-04 21:33N 40°45' E 029°20'10 8.7
2014-Sep-04 20:26N 40°46' E 029°33'0 0.2
2014-Sep-04 19:33N 40°46' E 029°33'0 0.0
2014-Sep-04 18:31N 40°46' E 029°33'0 0.0
2014-Sep-04 17:30N 40°46' E 029°33'0 0.0
2014-Sep-04 16:29N 40°46' E 029°33'0 0.0
2014-Sep-04 15:29N 40°46' E 029°33'0 0.0
2014-Sep-04 07:04N 40°46' E 029°33'0 0.0
2014-Sep-04 05:31N 40°46' E 029°33'0 0.0
2014-Sep-04 04:33N 40°46' E 029°33'0 0.0
2014-Sep-04 03:31N 40°46' E 029°33'0 0.0
2014-Sep-04 02:32N 40°46' E 029°33'0 0.0
2014-Sep-04 01:25N 40°46' E 029°33'0 0.0
2014-Sep-04 00:19N 40°46' E 029°33'0 0.0
2014-Sep-03 13:23N 40°46' E 029°33'0 0.0
2014-Sep-03 12:32N 40°46' E 029°33'0 0.0
2014-Sep-02 18:22N 40°46' E 029°33'0 0.0
2014-Sep-02 17:29N 40°46' E 029°33'0 0.0
2014-Sep-02 13:30N 40°46' E 029°33'0 0.0
2014-Sep-02 09:25N 40°46' E 029°33'0 0.0
2014-Sep-02 08:32N 40°46' E 029°33'0 0.0
2014-Sep-02 03:26N 40°46' E 029°33'1 0.0
2014-Aug-31 12:21N 40°46' E 029°32'5 5.7
2014-Aug-31 11:33N 40°46' E 029°26'0 0.0
2014-Aug-31 06:07N 40°46' E 029°26'0 0.0
2014-Aug-31 04:12N 40°46' E 029°26'3 0.7
2014-Aug-31 00:33N 40°45' E 029°23'9 8.9
2014-Aug-30 23:33N 40°47' E 029°12'9 9.1
2014-Aug-30 22:33N 40°50' E 029°00'8 7.9
2014-Aug-30 21:33N 40°58' E 028°58'25 1.9
2014-Aug-30 08:19N 41°17' E 029°19'7 9.6
2014-Aug-30 07:33N 41°18' E 029°29'365 7.9
2014-Aug-28 09:21N 44°08' E 036°50'26 9.2
2014-Aug-28 06:31N 44°23' E 037°19'9 9.6
2014-Aug-28 05:33N 44°28' E 037°30'10 9.6
2014-Aug-28 04:33N 44°33' E 037°41'9 9.2
2014-Aug-28 03:33N 44°40' E 037°50'5 4.7
2014-Aug-28 02:33N 44°44' E 037°47'0 0.0
2014-Aug-28 01:33N 44°44' E 037°47'0 0.0
2014-Aug-28 00:32N 44°44' E 037°47'0 0.0
2014-Aug-27 23:32N 44°44' E 037°47'0 0.0
2014-Aug-27 22:31N 44°44' E 037°47'0 0.0
2014-Aug-27 21:31N 44°44' E 037°47'0 0.0
2014-Aug-27 20:31N 44°44' E 037°47'  

Dump ship's entire track history